Latest Weather Observations for Kowanyama

IDQ60801

Issued at 8:35 pm EST Monday 21 April 2014 (issued every 30 minutes, with the page automatically refreshed every 10 minutes)

About weather observations | Map of weather stations | Latest weather observations for QLD | Other Formats
Station Details ID: 029038 Name: KOWANYAMA AIRPORT Lat: -15.48 Lon: 141.75 Height: 9.6 m
Data from the previous 72 hours. | See also: Recent months at Kowanyama
Date/Time
EST
Temp
°C
App
Temp
°C
Dew
Point
Rel
Hum
%
Delta-T
°C
Wind Press
QNH
hPa
Press
MSL
hPa
Rain
since 9 am
mm
Dir
 
Spd
km/h
Gust
km/h
Spd
kts
Gust
kts
21/08:30pm 27.1 30.0 22.5 76 3.1 SE 11 15 6 8 1012.5 - 0.0
21/08:00pm 27.6 30.8 22.3 73 3.6 ESE 9 11 5 6 1012.2 - 0.0
21/07:30pm 27.5 31.1 22.4 73 3.4 ESE 7 9 4 5 1011.9 - 0.0
21/07:00pm 27.5 31.3 22.7 75 3.3 SE 7 9 4 5 1011.5 - 0.0
21/06:30pm 28.4 31.6 21.7 67 4.5 ESE 7 9 4 5 1011.2 - 0.0
21/06:00pm 28.6 32.1 22.1 68 4.4 E 7 11 4 6 1011.1 1011.0 0.0
21/05:30pm 29.0 32.7 22.2 66 4.6 E 6 9 3 5 1011.0 - 0.0
21/05:00pm 29.4 34.1 22.6 67 4.6 ENE 2 7 1 4 1010.8 - 0.0
21/04:30pm 29.7 32.9 21.6 61 5.4 E 7 9 4 5 1010.4 - 0.0
21/04:00pm 30.2 33.0 21.6 60 5.8 ESE 9 13 5 7 1010.4 - 0.0
21/03:30pm 30.7 33.1 21.5 58 6.2 E 11 19 6 10 1010.2 - 0.0
21/03:00pm 30.6 32.8 21.1 57 6.4 E 11 17 6 9 1010.2 1010.1 0.0
21/02:30pm 31.1 32.7 20.7 54 6.9 ENE 13 24 7 13 1010.2 - 0.0
21/02:00pm 31.0 32.3 20.9 55 6.7 ENE 15 28 8 15 1010.4 - 0.0
21/01:30pm 31.8 33.0 20.7 51 7.4 E 15 24 8 13 1010.7 - 0.0
21/01:00pm 31.7 32.2 20.9 52 7.2 ESE 19 26 10 14 1010.9 - 0.0
21/12:30pm 31.0 31.8 20.6 54 6.9 E 17 26 9 14 1011.2 - 0.0
21/12:00pm 30.5 30.7 20.1 53 6.9 E 19 30 10 16 1011.6 1011.5 0.0
21/11:30am 30.5 30.5 19.8 52 7.0 E 19 28 10 15 1012.0 - 0.0
21/11:00am 29.9 29.7 19.3 53 6.9 E 19 28 10 15 1012.4 - 0.0
21/10:30am 29.3 28.9 19.0 53 6.7 E 19 30 10 16 1012.8 - 0.0
21/10:00am 28.6 28.1 18.7 55 6.4 E 19 30 10 16 1012.9 - 0.0
21/09:30am 27.6 27.6 18.0 55 6.1 E 15 24 8 13 1013.0 - 0.0
21/09:00am 25.7 26.7 18.6 65 4.5 E 11 15 6 8 1013.1 1013.0 0.0
21/08:30am 24.3 24.6 18.0 68 4.0 E 13 17 7 9 1012.9 - 0.0
21/08:00am 22.9 24.0 18.0 74 3.1 ESE 9 11 5 6 1012.7 - 0.0
21/07:30am 21.5 22.7 18.3 82 2.0 SE 9 11 5 6 1012.6 - 0.0
21/07:00am 19.8 21.4 17.8 88 1.2 SSE 6 7 3 4 1012.4 - 0.0
21/06:30am 20.1 21.3 17.3 84 1.7 ESE 7 11 4 6 1012.1 - 0.0
21/06:00am 19.8 21.4 17.9 89 1.2 SE 6 9 3 5 1011.9 1011.8 0.0
21/05:30am 20.2 22.3 18.1 88 1.3 SE 4 7 2 4 1011.6 - 0.0
21/05:00am 20.4 22.4 17.8 85 1.6 SSE 4 7 2 4 1011.4 - 0.0
21/04:30am 20.8 23.6 18.0 84 1.7 CALM 0 6 0 3 1011.2 - 0.0
21/04:00am 20.7 22.6 17.7 83 1.8 SE 4 9 2 5 1011.2 - 0.0
21/03:30am 21.3 22.8 17.7 80 2.2 SE 6 7 3 4 1011.1 - 0.0
21/03:00am 22.3 23.8 17.7 75 2.9 E 6 9 3 5 1011.0 1010.9 0.0
21/02:30am 22.8 24.2 17.7 73 3.2 E 7 9 4 5 1011.2 - 0.0
21/02:00am 23.1 24.5 17.8 72 3.3 E 7 11 4 6 1011.5 - 0.0
21/01:30am 23.1 25.1 19.1 78 2.5 E 7 9 4 5 1011.5 - 0.0
21/01:00am 23.6 25.4 18.7 74 3.1 E 7 11 4 6 1011.6 - 0.0
21/12:30am 24.0 25.7 18.6 72 3.4 E 7 11 4 6 1011.8 - 0.0
21/12:00am 24.2 25.9 18.6 71 3.5 E 7 11 4 6 1012.0 1011.9 0.0
 
Date/Time
EST
Temp
°C
App
Temp
°C
Dew
Point
Rel
Hum
%
Delta-T
°C
Wind Press
QNH
hPa
Press
MSL
hPa
Rain
since 9 am
mm
Dir
 
Spd
km/h
Gust
km/h
Spd
kts
Gust
kts
20/11:30pm 24.7 26.0 18.4 68 4.0 ESE 9 13 5 7 1012.2 - 0.0
20/11:00pm 24.9 26.3 17.9 65 4.4 E 7 11 4 6 1012.4 - 0.0
20/10:30pm 25.3 26.4 17.0 60 5.1 E 7 11 4 6 1012.6 - 0.0
20/10:00pm 25.5 26.5 16.9 59 5.3 ESE 7 9 4 5 1012.7 - 0.0
20/09:30pm 25.3 26.2 16.2 57 5.6 E 6 7 3 4 1012.5 - 0.0
20/09:00pm 25.8 26.5 16.1 55 5.9 ESE 7 11 4 6 1012.3 1012.2 0.0
20/08:30pm 26.5 26.2 15.5 50 6.7 ESE 11 15 6 8 1012.1 - 0.0
20/08:00pm 26.1 26.6 16.6 55 5.9 ESE 9 13 5 7 1011.7 - 0.0
20/07:30pm 25.8 26.8 16.9 58 5.5 ESE 7 9 4 5 1011.2 - 0.0
20/07:00pm 26.3 27.7 17.9 60 5.3 ESE 7 9 4 5 1011.0 - 0.0
20/06:30pm 28.2 28.8 16.8 50 7.1 ESE 9 13 5 7 1010.7 - 0.0
20/06:00pm 29.4 29.2 16.6 46 8.0 ESE 13 15 7 8 1010.4 1010.3 0.0
20/05:30pm 30.4 30.4 17.1 44 8.4 ESE 13 20 7 11 1010.2 - 0.0
20/05:00pm 30.9 30.4 16.9 43 8.8 ESE 15 22 8 12 1009.9 - 0.0
20/04:30pm 31.4 31.1 17.3 43 9.0 ESE 15 26 8 14 1009.7 - 0.0
20/04:00pm 31.5 30.1 17.0 41 9.2 ESE 20 32 11 17 1009.5 - 0.0
20/03:30pm 31.8 30.5 16.9 40 9.4 ESE 19 32 10 17 1009.5 - 0.0
20/03:00pm 32.1 31.6 18.7 45 8.7 ESE 19 26 10 14 1009.5 1009.4 0.0
20/02:30pm 31.9 32.5 18.5 45 8.7 E 13 20 7 11 1009.7 - 0.0
20/02:00pm 31.1 30.2 18.1 46 8.4 ESE 20 28 11 15 1010.1 - 0.0
20/01:30pm 31.0 30.4 18.4 47 8.1 E 19 28 10 15 1010.4 - 0.0
20/01:00pm 30.8 30.9 19.2 50 7.6 E 17 22 9 12 1010.8 - 0.0
20/12:30pm 30.2 31.4 19.9 54 6.8 E 13 22 7 12 1011.1 - 0.0
20/12:00pm 29.7 30.3 19.4 54 6.7 E 15 22 8 12 1011.7 1011.6 0.0
20/11:30am 29.5 29.8 19.5 55 6.5 E 17 28 9 15 1012.0 - 0.0
20/11:00am 28.8 29.9 20.5 61 5.5 E 15 24 8 13 1012.4 - 0.0
20/10:30am 27.7 28.3 19.5 61 5.3 E 15 24 8 13 1012.7 - 0.0
20/10:00am 26.9 26.9 19.8 65 4.6 E 19 26 10 14 1012.8 - 0.0
20/09:30am 26.2 26.1 19.6 67 4.3 ENE 19 24 10 13 1012.7 - 0.0
20/09:00am 25.1 27.4 20.6 76 2.9 E 9 15 5 8 1012.6 1012.5 0.0
20/08:30am 23.6 25.5 19.7 79 2.5 E 9 15 5 8 1012.6 - 0.0
20/08:00am 23.2 25.0 19.6 80 2.3 ESE 9 13 5 7 1012.3 - 0.0
20/07:30am 22.7 24.8 19.3 81 2.2 E 7 13 4 7 1012.1 - 0.0
20/07:00am 22.2 24.1 19.0 82 2.0 E 7 13 4 7 1011.9 - 0.0
20/06:30am 22.1 24.2 18.9 82 2.0 E 6 9 3 5 1011.6 - 0.0
20/06:00am 21.7 23.6 18.9 84 1.8 ESE 7 9 4 5 1011.4 1011.3 0.0
20/05:30am 22.6 25.3 18.6 78 2.5 E 2 7 1 4 1011.3 - 0.0
20/05:00am 22.8 24.3 18.1 75 2.9 E 7 9 4 5 1011.0 - 0.0
20/04:30am 22.9 24.7 18.2 75 2.9 E 6 11 3 6 1010.6 - 0.0
20/04:00am 23.0 24.8 18.3 75 2.9 ENE 6 9 3 5 1010.7 - 0.0
20/03:30am 23.3 25.0 18.4 74 3.1 E 7 9 4 5 1010.6 - 0.0
20/03:00am 23.4 25.1 18.5 74 3.1 ENE 7 11 4 6 1010.7 1010.6 0.0
20/02:30am 23.3 25.8 19.0 77 2.7 ENE 4 9 2 5 1010.8 - 0.0
20/02:00am 23.8 27.1 19.1 75 3.0 CALM 0 6 0 3 1010.9 - 0.0
20/01:30am 24.1 26.3 19.2 74 3.1 ENE 6 9 3 5 1011.0 - 0.0
20/01:00am 24.4 27.5 19.5 74 3.1 ENE 2 7 1 4 1011.4 - 0.0
20/12:30am 24.7 27.3 19.3 72 3.5 NE 4 9 2 5 1011.6 - 0.0
20/12:00am 25.2 27.7 19.8 72 3.5 ENE 6 11 3 6 1011.7 1011.6 0.0
 
Date/Time
EST
Temp
°C
App
Temp
°C
Dew
Point
Rel
Hum
%
Delta-T
°C
Wind Press
QNH
hPa
Press
MSL
hPa
Rain
since 9 am
mm
Dir
 
Spd
km/h
Gust
km/h
Spd
kts
Gust
kts
19/11:30pm 25.4 27.9 20.2 73 3.4 E 7 9 4 5 1011.9 - 0.0
19/11:00pm 25.7 29.0 20.7 74 3.3 ENE 4 7 2 4 1012.0 - 0.0
19/10:30pm 25.8 29.7 21.2 76 3.0 ENE 2 7 1 4 1012.1 - 0.0
19/10:00pm 26.0 29.4 21.7 77 2.9 E 6 7 3 4 1012.1 - 0.0
19/09:30pm 25.8 30.8 22.5 82 2.2 CALM 0 0 0 0 1012.1 - 0.0
19/09:00pm 26.2 30.7 22.9 82 2.2 E 4 7 2 4 1011.9 1011.8 0.0
19/08:30pm 26.7 32.0 23.0 80 2.5 CALM 0 0 0 0 1011.7 - 0.0
19/08:00pm 26.7 30.8 23.0 80 2.5 ENE 6 7 3 4 1011.3 - 0.0
19/07:30pm 27.9 31.8 21.2 67 4.5 ESE 2 7 1 4 1011.0 - 0.0
19/07:00pm 27.8 32.2 22.1 71 3.8 ESE 2 6 1 3 1010.8 - 0.0
19/06:30pm 28.4 31.6 21.7 67 4.5 E 7 9 4 5 1010.4 - 0.0
19/06:00pm 29.6 32.4 20.5 58 6.0 E 6 7 3 4 1010.2 1010.1 0.0
19/05:30pm 30.3 32.6 19.9 53 6.8 ESE 7 11 4 6 1010.0 - 0.0
19/05:00pm 30.9 32.9 19.9 52 7.2 ESE 9 13 5 7 1009.8 - 0.0
19/04:30pm 31.3 32.5 19.0 48 8.0 E 11 19 6 10 1009.6 - 0.0
19/04:00pm 31.8 33.5 20.1 50 7.7 ESE 11 15 6 8 1009.5 - 0.0
19/03:30pm 31.2 31.4 18.5 46 8.2 E 15 22 8 12 1009.4 - 0.0
19/03:00pm 31.7 31.9 19.3 47 8.1 E 17 28 9 15 1009.5 1009.4 0.0
19/02:30pm 31.8 32.6 19.8 49 7.9 E 15 22 8 12 1009.7 - 0.0
19/02:00pm 31.7 32.7 20.3 50 7.6 E 15 20 8 11 1010.2 - 0.0
19/01:30pm 31.2 31.4 20.2 52 7.3 E 19 24 10 13 1010.5 - 0.0
19/01:00pm 31.0 31.9 20.0 52 7.3 E 15 24 8 13 1011.2 - 0.0
19/12:30pm 30.8 31.2 19.8 52 7.2 ENE 17 28 9 15 1011.7 - 0.0
19/12:00pm 29.9 29.9 19.0 52 7.1 E 17 28 9 15 1012.2 1012.1 0.0
19/11:30am 29.7 30.0 19.7 55 6.5 E 17 26 9 14 1012.7 - 0.0
19/11:00am 29.7 30.2 20.0 56 6.4 E 17 26 9 14 1013.3 - 0.0
19/10:30am 28.7 28.9 19.3 56 6.1 E 17 30 9 16 1013.5 - 0.0
19/10:00am 28.0 27.5 19.2 58 5.7 E 20 33 11 18 1013.5 - 0.0
19/09:30am 27.5 27.5 19.8 63 5.0 E 19 26 10 14 1013.5 - 0.0
19/09:00am 26.8 27.0 20.2 67 4.3 E 19 26 10 14 1013.5 1013.4 0.2
19/08:30am 26.3 27.7 21.1 73 3.4 E 15 26 8 14 1013.4 - 0.2
19/08:00am 25.5 28.1 21.2 77 2.8 E 9 17 5 9 1013.1 - 0.2
19/07:30am 24.5 26.8 20.6 79 2.5 E 9 13 5 7 1012.9 - 0.2
19/07:00am 23.8 26.4 20.5 82 2.1 E 7 11 4 6 1012.5 - 0.2
19/06:30am 23.5 26.3 20.4 83 2.0 E 6 9 3 5 1012.1 - 0.2
19/06:00am 23.6 26.5 20.7 84 1.9 E 6 9 3 5 1011.8 1011.7 0.2
19/05:30am 23.7 26.5 20.4 82 2.1 E 6 7 3 4 1011.8 - 0.2
19/05:00am 23.8 26.5 20.7 83 2.0 E 7 9 4 5 1011.6 - 0.2
19/04:30am 24.0 26.8 20.9 83 2.0 E 7 11 4 6 1011.5 - 0.2
19/04:00am 24.0 27.1 21.5 86 1.7 E 7 11 4 6 1011.6 - 0.2
19/03:30am 23.8 27.7 21.9 89 1.3 E 4 7 2 4 1011.8 - 0.2
19/03:00am 23.9 27.8 21.8 88 1.4 E 4 7 2 4 1012.0 1011.9 0.2
19/02:30am 23.9 27.5 22.0 89 1.3 SE 6 7 3 4 1012.2 - 0.2
19/02:00am 24.5 28.7 21.8 85 1.8 E 2 6 1 3 1012.3 - 0.2
19/01:30am 24.9 29.3 21.4 81 2.3 CALM 0 0 0 0 1012.8 - 0.2
19/01:00am 25.0 28.2 21.3 80 2.4 E 6 9 3 5 1012.9 - 0.2
19/12:30am 24.9 28.3 21.6 82 2.2 E 6 9 3 5 1013.3 - 0.2
19/12:00am 25.0 29.7 21.9 83 2.1 CALM 0 0 0 0 1013.4 1013.3 0.2
 
Date/Time
EST
Temp
°C
App
Temp
°C
Dew
Point
Rel
Hum
%
Delta-T
°C
Wind Press
QNH
hPa
Press
MSL
hPa
Rain
since 9 am
mm
Dir
 
Spd
km/h
Gust
km/h
Spd
kts
Gust
kts
18/11:30pm 25.1 29.1 21.4 80 2.4 E 2 7 1 4 1013.6 - 0.2
18/11:00pm 25.6 28.8 21.3 77 2.8 E 6 9 3 5 1013.7 - 0.2
18/10:30pm 25.8 28.4 21.2 76 3.0 E 9 15 5 8 1013.8 - 0.2
18/10:00pm 25.9 28.9 22.0 79 2.6 E 9 20 5 11 1013.9 - 0.2
18/09:30pm 25.4 29.0 22.1 82 2.2 E 6 9 3 5 1013.7 - 0.2
18/09:00pm 25.3 28.6 21.8 81 2.3 E 7 11 4 6 1013.6 1013.5 0.2

Other Formats:

Comma delimited format used in spreadsheet applications
http://www.bom.gov.au/fwo/IDQ60801/IDQ60801.94268.axf

JavaScript Object Notation format (JSON) in row-major order
http://www.bom.gov.au/fwo/IDQ60801/IDQ60801.94268.json